Time;durP1;ratioP1;P1;durP2;ratioP2;P2;SDS_P1;SDS_P2;PMS_P1;PMS_P2;Temp;Humidity;BMP_temperature;BMP_pressure;BME280_temperature;BME280_humidity;BME280_pressure;Samples;Min_cycle;Max_cycle;Signal;HPM_P1;HPM_P2
2021/07/04 00:00:38;;;;;;;6.40;5.80;;;;;;;19.32;93.82;96096.63;5033136;28;20246;-63
2021/07/04 00:03:05;;;;;;;5.50;5.00;;;;;;;19.07;95.72;96094.25;5032598;28;20248;-63
2021/07/04 00:05:42;;;;;;;6.20;5.70;;;;;;;18.98;96.91;96086.13;5031594;28;20411;-63
2021/07/04 00:08:10;;;;;;;5.47;5.07;;;;;;;18.99;96.75;96086.91;5032957;28;20410;-63
2021/07/04 00:10:43;;;;;;;6.70;6.13;;;;;;;18.80;97.75;96088.72;5032941;28;20415;-61
2021/07/04 00:13:08;;;;;;;6.90;6.20;;;;;;;19.14;96.79;96089.38;5037754;28;20460;-63
2021/07/04 00:15:40;;;;;;;6.40;5.80;;;;;;;19.03;97.44;96093.25;5039863;28;20490;-62
2021/07/04 00:18:18;;;;;;;6.70;6.10;;;;;;;19.26;95.97;96097.75;5031562;28;20226;-63
2021/07/04 00:20:44;;;;;;;7.43;6.73;;;;;;;19.17;96.29;96105.59;5044250;28;20420;-63
2021/07/04 00:23:11;;;;;;;6.83;6.23;;;;;;;19.30;95.36;96106.75;5055202;28;20841;-62
2021/07/04 00:25:37;;;;;;;8.60;7.70;;;;;;;19.23;95.90;96109.78;5056422;28;20417;-63
2021/07/04 00:28:03;;;;;;;11.03;10.10;;;;;;;19.49;94.86;96111.03;5056620;28;20441;-62
2021/07/04 00:30:29;;;;;;;16.30;14.70;;;;;;;19.48;95.13;96106.81;5056004;28;20442;-63
2021/07/04 00:32:54;;;;;;;8.10;7.40;;;;;;;19.23;95.66;96099.13;5037148;28;20422;-63
2021/07/04 00:35:21;;;;;;;7.13;6.53;;;;;;;18.61;99.00;96109.16;5036217;28;20211;-63
2021/07/04 00:37:48;;;;;;;6.90;6.20;;;;;;;18.69;99.93;96112.03;5036348;28;20176;-62
2021/07/04 00:40:14;;;;;;;8.17;6.80;;;;;;;18.72;99.73;96103.47;5034960;28;20498;-62
2021/07/04 00:42:40;;;;;;;7.00;6.40;;;;;;;18.80;98.43;96099.38;5038160;28;20422;-63
2021/07/04 00:45:08;;;;;;;7.40;6.80;;;;;;;18.85;98.67;96096.66;5056173;28;20482;-62
2021/07/04 00:47:34;;;;;;;7.30;6.70;;;;;;;18.97;97.70;96095.19;5056189;28;20221;-62
2021/07/04 00:49:59;;;;;;;6.67;6.17;;;;;;;19.02;97.00;96084.44;5055964;28;20484;-61
2021/07/04 00:52:25;;;;;;;10.40;7.03;;;;;;;19.38;95.25;96072.31;5055619;28;20205;-63
2021/07/04 00:54:51;;;;;;;7.33;6.63;;;;;;;19.56;94.82;96075.25;5055740;28;20211;-64
2021/07/04 00:57:17;;;;;;;7.90;7.10;;;;;;;19.51;93.69;96080.66;5054142;28;20406;-63
2021/07/04 00:59:42;;;;;;;7.30;6.60;;;;;;;19.48;93.86;96076.69;5036010;28;20176;-63
2021/07/04 01:02:07;;;;;;;8.13;6.97;;;;;;;19.48;93.94;96080.16;5035458;28;20172;-62
2021/07/04 01:04:33;;;;;;;8.37;7.37;;;;;;;19.32;94.92;96077.97;5035738;28;20195;-62
2021/07/04 01:06:58;;;;;;;6.63;6.10;;;;;;;19.08;95.56;96069.19;5035873;28;20182;-63
2021/07/04 01:09:24;;;;;;;7.70;6.93;;;;;;;19.07;96.05;96072.97;5035696;28;20230;-63
2021/07/04 01:11:49;;;;;;;7.37;6.67;;;;;;;19.31;94.95;96076.41;5035364;28;20645;-61
2021/07/04 01:14:16;;;;;;;7.63;7.03;;;;;;;19.26;94.75;96079.09;5055175;28;20195;-62
2021/07/04 01:16:42;;;;;;;7.17;6.50;;;;;;;19.17;95.03;96078.94;5052545;28;20183;-63
2021/07/04 01:19:10;;;;;;;6.70;6.20;;;;;;;19.38;93.84;96071.50;5055359;28;20406;-63
2021/07/04 01:21:39;;;;;;;7.50;6.53;;;;;;;19.20;94.24;96073.03;5036493;28;20406;-63
2021/07/04 01:24:05;;;;;;;7.30;6.00;;;;;;;19.14;95.15;96076.06;5035495;28;20418;-61
2021/07/04 01:26:31;;;;;;;7.23;6.50;;;;;;;19.33;94.42;96074.25;5035465;28;20422;-62
2021/07/04 01:28:56;;;;;;;7.77;7.03;;;;;;;19.08;94.95;96077.19;5040254;28;20197;-62
2021/07/04 01:31:21;;;;;;;8.20;6.90;;;;;;;19.07;95.29;96075.63;5036098;28;20187;-63
2021/07/04 01:33:49;;;;;;;7.80;6.73;;;;;;;18.72;97.46;96081.34;5033858;28;20710;-62
2021/07/04 01:36:14;;;;;;;7.30;6.60;;;;;;;18.65;98.48;96076.38;5035199;28;20214;-63
2021/07/04 01:38:39;;;;;;;7.57;6.97;;;;;;;18.65;98.48;96087.03;5035300;28;20406;-61
2021/07/04 01:41:05;;;;;;;8.47;7.67;;;;;;;18.82;97.52;96078.59;5035140;28;20168;-62
2021/07/04 01:43:30;;;;;;;9.53;8.70;;;;;;;18.92;96.96;96081.13;5034537;28;20624;-61
2021/07/04 01:45:55;;;;;;;8.93;8.13;;;;;;;19.10;95.75;96075.84;5051693;28;20192;-63
2021/07/04 01:48:21;;;;;;;8.90;7.97;;;;;;;18.95;96.29;96081.34;5054939;28;20179;-62
2021/07/04 01:50:49;;;;;;;8.40;7.70;;;;;;;18.80;96.94;96081.53;5054866;28;20703;-62
2021/07/04 01:53:16;;;;;;;10.13;7.20;;;;;;;18.91;97.02;96074.22;5054093;28;20204;-61
2021/07/04 01:55:41;;;;;;;8.80;7.90;;;;;;;18.45;99.34;96079.25;5054679;28;20453;-62
2021/07/04 01:58:07;;;;;;;8.13;7.30;;;;;;;18.54;98.94;96082.09;5046134;28;20785;-63
2021/07/04 02:00:35;;;;;;;7.97;7.27;;;;;;;18.21;100.00;96075.72;5050724;28;20190;-62
2021/07/04 02:03:03;;;;;;;8.10;7.30;;;;;;;18.47;100.00;96071.78;5054175;28;20257;-62
2021/07/04 02:05:29;;;;;;;8.67;7.97;;;;;;;18.51;99.68;96061.38;5054633;28;20780;-63
2021/07/04 02:07:54;;;;;;;8.27;7.57;;;;;;;18.63;98.64;96065.22;5054596;28;20402;-63
2021/07/04 02:10:34;;;;;;;8.80;8.00;;;;;;;18.55;99.47;96060.53;5054479;28;20172;-62
2021/07/04 02:13:00;;;;;;;8.83;8.13;;;;;;;18.71;98.88;96064.63;5053947;28;20185;-63
2021/07/04 02:15:28;;;;;;;8.00;7.30;;;;;;;18.60;99.29;96067.66;5036912;28;20469;-63
2021/07/04 02:17:54;;;;;;;9.23;8.43;;;;;;;18.59;99.91;96066.84;5034271;28;20180;-61
2021/07/04 02:20:33;;;;;;;10.63;7.70;;;;;;;18.79;98.37;96063.97;5042414;28;20418;-63
2021/07/04 02:23:05;;;;;;;8.87;7.77;;;;;;;18.65;99.09;96057.75;5053848;28;20452;-63
2021/07/04 02:25:31;;;;;;;8.57;7.77;;;;;;;18.42;100.00;96059.31;5054823;28;20768;-61
2021/07/04 02:27:57;;;;;;;10.03;9.07;;;;;;;18.25;100.00;96060.81;5053747;28;20424;-63
2021/07/04 02:30:23;;;;;;;9.80;8.80;;;;;;;18.26;100.00;96062.41;5054112;28;20637;-63
2021/07/04 02:32:48;;;;;;;10.67;9.67;;;;;;;18.12;100.00;96058.78;5053750;28;20182;-62
2021/07/04 02:35:14;;;;;;;10.07;9.17;;;;;;;18.28;100.00;96063.69;5053824;28;20462;-63
2021/07/04 02:37:39;;;;;;;11.07;8.43;;;;;;;18.37;100.00;96064.66;5053885;28;20182;-62
2021/07/04 02:40:06;;;;;;;10.47;9.37;;;;;;;18.50;100.00;96062.47;5053854;28;20179;-62
2021/07/04 02:42:32;;;;;;;9.53;8.73;;;;;;;18.53;100.00;96056.56;5049266;28;20175;-62
2021/07/04 02:45:00;;;;;;;9.97;9.03;;;;;;;18.59;100.00;96060.75;5041378;28;20445;-61
2021/07/04 02:47:30;;;;;;;9.80;8.90;;;;;;;18.44;100.00;96057.16;5053771;28;20179;-62
2021/07/04 02:49:56;;;;;;;15.47;9.63;;;;;;;18.55;100.00;96057.06;5053701;28;20744;-63
2021/07/04 02:52:21;;;;;;;12.00;10.80;;;;;;;18.24;100.00;96054.69;5053405;28;20421;-61
2021/07/04 02:54:46;;;;;;;11.30;10.20;;;;;;;18.17;100.00;96054.22;5053376;28;20203;-63
2021/07/04 02:57:12;;;;;;;10.67;9.70;;;;;;;18.42;100.00;96046.00;5053542;28;20171;-63
2021/07/04 02:59:39;;;;;;;10.07;9.17;;;;;;;18.47;100.00;96050.50;5034722;28;20188;-63
2021/07/04 03:02:04;;;;;;;10.97;9.90;;;;;;;18.56;100.00;96046.13;5034311;28;20433;-63
2021/07/04 03:04:30;;;;;;;10.47;9.47;;;;;;;18.66;100.00;96048.69;5033541;28;20427;-63
2021/07/04 03:06:57;;;;;;;10.03;9.20;;;;;;;18.59;100.00;96047.47;5033760;28;20226;-63
2021/07/04 03:09:22;;;;;;;10.57;9.67;;;;;;;18.56;100.00;96045.34;5033521;28;20234;-63
2021/07/04 03:11:48;;;;;;;10.53;8.60;;;;;;;18.77;100.00;96047.47;5033155;28;20889;-62
2021/07/04 03:14:13;;;;;;;10.43;9.53;;;;;;;18.56;100.00;96040.81;5033511;28;20552;-62
2021/07/04 03:16:39;;;;;;;11.33;10.40;;;;;;;18.78;100.00;96049.09;5047789;28;20202;-63
2021/07/04 03:19:04;;;;;;;10.60;9.40;;;;;;;18.82;100.00;96047.44;5053336;28;20174;-63
2021/07/04 03:21:29;;;;;;;10.87;9.77;;;;;;;18.80;100.00;96048.78;5035112;28;20701;-62
2021/07/04 03:23:55;;;;;;;9.93;8.93;;;;;;;18.88;99.27;96038.28;5033189;28;20187;-61
2021/07/04 03:26:23;;;;;;;10.60;9.60;;;;;;;18.90;99.85;96041.47;5033399;28;20251;-62
2021/07/04 03:28:48;;;;;;;11.20;10.07;;;;;;;18.69;100.00;96042.00;5045065;28;20187;-62
2021/07/04 03:31:14;;;;;;;11.17;10.00;;;;;;;18.88;100.00;96032.97;5053329;28;20433;-63
2021/07/04 03:33:39;;;;;;;9.30;8.50;;;;;;;19.06;98.35;96036.75;5052669;28;20248;-62
2021/07/04 03:36:05;;;;;;;10.67;9.57;;;;;;;18.93;99.26;96029.47;5053397;28;20179;-63
2021/07/04 03:38:31;;;;;;;9.30;8.50;;;;;;;19.06;98.51;96028.78;5053406;28;20179;-63
2021/07/04 03:40:57;;;;;;;9.13;8.23;;;;;;;19.13;98.24;96029.19;5053159;28;20550;-62
2021/07/04 03:43:22;;;;;;;10.37;9.17;;;;;;;19.25;97.70;96024.22;5042238;28;20439;-63
2021/07/04 03:45:48;;;;;;;9.33;8.53;;;;;;;19.39;96.74;96033.09;5033351;28;20874;-62
2021/07/04 03:48:13;;;;;;;8.43;7.60;;;;;;;19.51;96.49;96030.81;5033103;28;20169;-63
2021/07/04 03:50:39;;;;;;;9.23;8.40;;;;;;;19.53;96.26;96023.28;5033119;28;20238;-63
2021/07/04 03:53:04;;;;;;;9.00;8.10;;;;;;;19.64;95.88;96026.63;5032620;28;20183;-63
2021/07/04 03:55:30;;;;;;;7.30;6.67;;;;;;;19.73;95.57;96033.63;5032922;28;20203;-62
2021/07/04 03:57:55;;;;;;;8.27;7.47;;;;;;;19.70;95.15;96034.22;5044247;28;20171;-63
2021/07/04 04:00:21;;;;;;;8.80;8.10;;;;;;;19.74;95.16;96040.56;5044083;28;20267;-62
2021/07/04 04:02:47;;;;;;;10.90;8.27;;;;;;;19.81;95.15;96045.53;5036677;28;20165;-62
2021/07/04 04:05:13;;;;;;;7.53;6.93;;;;;;;19.91;94.73;96042.72;5036686;28;20238;-63
2021/07/04 04:07:39;;;;;;;7.00;6.50;;;;;;;19.94;94.40;96048.25;5036976;28;20176;-63
2021/07/04 04:10:07;;;;;;;8.47;7.80;;;;;;;19.52;95.72;96048.38;5036993;28;20390;-63
2021/07/04 04:12:33;;;;;;;8.00;7.37;;;;;;;19.49;95.75;96052.41;5036585;28;20445;-62
2021/07/04 04:15:02;;;;;;;8.10;7.50;;;;;;;19.76;95.25;96051.75;5047564;28;20489;-59
2021/07/04 04:17:29;;;;;;;18.20;9.03;;;;;;;19.62;95.10;96053.53;5056475;28;20233;-63
2021/07/04 04:19:54;;;;;;;7.67;6.97;;;;;;;19.37;96.71;96064.56;5052086;28;20413;-63
2021/07/04 04:22:20;;;;;;;7.73;7.03;;;;;;;19.39;96.95;96059.75;5036306;28;20495;-61
2021/07/04 04:24:45;;;;;;;8.17;7.40;;;;;;;19.44;96.59;96067.66;5036530;28;20185;-62
2021/07/04 04:27:11;;;;;;;7.90;7.30;;;;;;;19.58;95.97;96062.41;5038403;28;20584;-61
2021/07/04 04:29:37;;;;;;;9.30;8.33;;;;;;;19.40;96.53;96050.69;5056406;28;20159;-62
2021/07/04 04:32:02;;;;;;;8.53;7.47;;;;;;;19.65;95.14;96060.19;5056058;28;20194;-63
2021/07/04 04:34:28;;;;;;;8.40;7.70;;;;;;;19.70;94.79;96052.09;5056100;28;20199;-62
2021/07/04 04:36:53;;;;;;;8.53;7.83;;;;;;;19.89;94.35;96058.22;5046718;28;20532;-63
2021/07/04 04:39:20;;;;;;;8.80;8.10;;;;;;;20.00;93.27;96044.38;5036366;28;20179;-63
2021/07/04 04:41:47;;;;;;;9.23;8.33;;;;;;;20.01;93.11;96042.53;5035886;28;20192;-62
2021/07/04 04:44:13;;;;;;;9.63;8.10;;;;;;;19.95;93.24;96043.69;5036208;28;20426;-62
2021/07/04 04:46:38;;;;;;;9.10;8.17;;;;;;;19.57;94.71;96037.63;5036323;28;20398;-61
2021/07/04 04:49:03;;;;;;;8.53;7.73;;;;;;;19.89;93.31;96037.63;5035933;28;20168;-62
2021/07/04 04:51:29;;;;;;;7.70;7.00;;;;;;;19.94;93.46;96042.13;5041911;28;20163;-63
2021/07/04 04:53:55;;;;;;;7.63;7.00;;;;;;;20.08;92.96;96035.72;5055564;28;20211;-61
2021/07/04 04:56:20;;;;;;;9.53;8.53;;;;;;;20.17;92.09;96031.34;5055871;28;20413;-63
2021/07/04 04:58:46;;;;;;;8.60;7.80;;;;;;;20.07;91.96;96026.16;5055882;28;20175;-62
2021/07/04 05:01:11;;;;;;;7.90;7.20;;;;;;;20.04;92.98;96028.59;5055807;28;20167;-63
2021/07/04 05:03:37;;;;;;;8.57;7.87;;;;;;;20.14;92.62;96029.22;5055273;28;20731;-63
2021/07/04 05:06:03;;;;;;;8.77;7.50;;;;;;;20.19;92.40;96023.03;5049356;28;20187;-62
2021/07/04 05:08:30;;;;;;;8.40;7.70;;;;;;;20.10;92.54;96022.88;5045433;28;20179;-62
2021/07/04 05:10:56;;;;;;;7.90;7.30;;;;;;;20.26;91.97;96021.56;5055463;28;20191;-62
2021/07/04 05:13:21;;;;;;;8.00;7.30;;;;;;;20.24;92.17;96023.72;5055135;28;20430;-62
2021/07/04 05:15:47;;;;;;;8.33;7.47;;;;;;;20.39;91.67;96011.97;5055370;28;20449;-61
2021/07/04 05:18:12;;;;;;;7.53;6.93;;;;;;;20.46;91.72;96013.19;5055447;28;20678;-61
2021/07/04 05:20:38;;;;;;;7.77;7.00;;;;;;;20.49;91.58;96011.78;5045066;28;20255;-62
2021/07/04 05:23:03;;;;;;;7.43;6.83;;;;;;;20.61;91.17;96006.75;5054922;28;20633;-62
2021/07/04 05:25:28;;;;;;;9.37;8.60;;;;;;;20.46;91.67;95999.81;5055506;28;20175;-63
2021/07/04 05:27:54;;;;;;;7.80;7.10;;;;;;;20.52;91.40;95997.84;5055454;28;20225;-63
2021/07/04 05:30:19;;;;;;;8.30;7.53;;;;;;;20.60;90.77;95991.03;5055247;28;20167;-63
2021/07/04 05:32:45;;;;;;;8.77;8.07;;;;;;;20.67;90.69;95994.09;5054913;28;20171;-62
2021/07/04 05:35:10;;;;;;;9.00;8.10;;;;;;;20.66;90.87;95982.59;5049164;28;20200;-61
2021/07/04 05:37:36;;;;;;;8.03;7.23;;;;;;;20.71;90.65;95984.41;5035562;28;20603;-62
2021/07/04 05:40:10;;;;;;;8.10;7.40;;;;;;;20.75;90.30;95983.50;5035162;28;20187;-63
2021/07/04 05:42:35;;;;;;;8.37;7.63;;;;;;;20.31;91.00;95988.63;5034835;28;20168;-62
2021/07/04 05:45:04;;;;;;;7.57;6.97;;;;;;;20.25;91.48;95990.63;5034934;28;20805;-63
2021/07/04 05:47:30;;;;;;;9.50;8.30;;;;;;;20.47;90.77;95988.03;5033594;28;20204;-63
2021/07/04 05:49:55;;;;;;;8.03;7.33;;;;;;;20.65;90.14;95991.72;5035009;28;20426;-63
2021/07/04 05:52:20;;;;;;;8.03;7.37;;;;;;;20.52;90.48;95989.03;5052975;28;20207;-61
2021/07/04 05:54:46;;;;;;;8.40;7.60;;;;;;;20.32;91.60;95983.03;5054778;28;20646;-63
2021/07/04 05:57:11;;;;;;;8.50;7.80;;;;;;;20.51;90.16;95984.81;5054950;28;20171;-63
2021/07/04 05:59:36;;;;;;;7.80;7.10;;;;;;;20.62;89.98;95981.63;5054946;28;20171;-63
2021/07/04 06:02:03;;;;;;;7.90;7.20;;;;;;;20.59;90.47;95989.44;5054382;28;20168;-62
2021/07/04 06:04:28;;;;;;;7.93;7.20;;;;;;;20.47;90.81;95984.63;5054549;28;20187;-62
2021/07/04 06:06:54;;;;;;;8.73;7.87;;;;;;;20.64;90.10;95986.66;5037191;28;20418;-63
2021/07/04 06:09:19;;;;;;;7.60;7.00;;;;;;;20.76;89.94;95984.28;5034643;28;20179;-62
2021/07/04 06:11:48;;;;;;;7.33;6.80;;;;;;;20.84;89.83;95981.69;5034264;28;20172;-62
2021/07/04 06:14:13;;;;;;;9.90;7.63;;;;;;;20.49;90.48;95982.41;5034402;28;20196;-62
2021/07/04 06:16:38;;;;;;;7.87;7.27;;;;;;;20.39;91.37;95988.75;5034334;28;20959;-62
2021/07/04 06:19:04;;;;;;;7.97;7.20;;;;;;;20.39;90.97;95979.94;5034275;28;20172;-61
2021/07/04 06:21:29;;;;;;;7.27;6.63;;;;;;;20.18;91.80;95984.88;5047465;28;20176;-62
2021/07/04 06:23:54;;;;;;;9.63;7.53;;;;;;;20.25;91.52;95971.94;5033968;28;20192;-63
2021/07/04 06:26:20;;;;;;;8.13;7.50;;;;;;;20.50;90.01;95968.00;5034222;28;20176;-62
2021/07/04 06:28:45;;;;;;;7.20;6.60;;;;;;;20.61;89.95;95961.34;5034165;28;20168;-63
2021/07/04 06:31:11;;;;;;;7.73;7.17;;;;;;;20.65;89.97;95964.22;5034023;28;20168;-63
2021/07/04 06:33:36;;;;;;;8.17;7.10;;;;;;;20.53;89.65;95971.94;5033733;28;20646;-62
2021/07/04 06:36:02;;;;;;;8.13;7.40;;;;;;;20.66;89.31;95969.25;5035192;28;20254;-62
2021/07/04 06:38:27;;;;;;;8.57;7.67;;;;;;;20.69;89.55;95979.34;5054030;28;20522;-62
2021/07/04 06:40:53;;;;;;;8.20;7.37;;;;;;;20.77;89.23;95983.97;5054004;28;20656;-62
2021/07/04 06:43:19;;;;;;;7.03;6.43;;;;;;;20.40;89.81;95982.31;5052220;28;20569;-62
2021/07/04 06:45:44;;;;;;;7.57;6.87;;;;;;;20.71;89.03;95984.41;5053556;28;20163;-62
2021/07/04 06:48:10;;;;;;;8.07;6.83;;;;;;;20.24;88.96;95986.38;5053878;28;20171;-63
2021/07/04 06:50:35;;;;;;;6.50;6.03;;;;;;;20.15;91.81;95989.97;5045427;28;20173;-62
2021/07/04 06:53:01;;;;;;;7.90;7.20;;;;;;;20.14;91.38;95999.88;5033233;28;20658;-62
2021/07/04 06:55:26;;;;;;;6.33;5.83;;;;;;;20.06;90.32;95999.75;5033708;28;20199;-63
2021/07/04 06:57:52;;;;;;;6.33;5.83;;;;;;;20.26;89.26;96005.56;5033650;28;20175;-63
2021/07/04 07:00:18;;;;;;;6.70;6.10;;;;;;;20.58;89.49;95998.53;5033560;28;20607;-63
2021/07/04 07:02:43;;;;;;;7.07;6.47;;;;;;;20.61;91.14;95997.94;5033487;28;20675;-61
2021/07/04 07:05:11;;;;;;;6.73;6.13;;;;;;;20.83;91.10;95998.81;5039691;28;20487;-63
2021/07/04 07:07:37;;;;;;;7.30;6.70;;;;;;;20.84;89.67;95991.59;5053566;28;20160;-61
2021/07/04 07:10:07;;;;;;;7.07;6.43;;;;;;;20.70;91.06;95996.16;5053384;28;20458;-63
2021/07/04 07:12:33;;;;;;;7.07;6.50;;;;;;;20.96;90.70;95981.97;5053170;28;20421;-62
2021/07/04 07:14:58;;;;;;;6.57;6.07;;;;;;;21.40;89.75;95971.38;5053169;28;20438;-63
2021/07/04 07:17:25;;;;;;;7.33;6.63;;;;;;;21.69;88.87;95978.16;5053274;28;20187;-62
2021/07/04 07:19:50;;;;;;;7.30;6.70;;;;;;;21.77;87.57;95970.22;5048375;28;20203;-61
2021/07/04 07:22:17;;;;;;;6.90;6.30;;;;;;;21.95;86.34;95971.13;5033000;28;20873;-63
2021/07/04 07:24:43;;;;;;;7.67;7.07;;;;;;;21.84;85.86;95975.94;5033429;28;20265;-62
2021/07/04 07:27:08;;;;;;;6.80;6.30;;;;;;;22.09;84.23;95969.16;5033538;28;20903;-61
2021/07/04 07:29:33;;;;;;;7.00;6.40;;;;;;;22.22;83.83;95970.94;5033157;28;20174;-63
2021/07/04 07:31:59;;;;;;;7.20;6.47;;;;;;;21.96;83.77;95972.72;5032493;28;20183;-62
2021/07/04 07:34:25;;;;;;;6.73;6.03;;;;;;;21.81;84.76;95965.06;5051263;28;20592;-61
2021/07/04 07:36:51;;;;;;;6.60;6.10;;;;;;;21.95;83.29;95955.88;5052984;28;20195;-63
2021/07/04 07:39:17;;;;;;;6.57;6.00;;;;;;;21.92;84.29;95945.00;5053076;28;20487;-64
2021/07/04 07:41:42;;;;;;;7.57;6.90;;;;;;;22.20;83.90;95943.69;5052704;28;20194;-63
2021/07/04 07:44:08;;;;;;;7.13;6.57;;;;;;;22.28;83.93;95933.00;5052856;28;20642;-62
2021/07/04 07:46:33;;;;;;;6.30;5.80;;;;;;;22.42;83.81;95932.91;5053244;28;20163;-64
2021/07/04 07:48:59;;;;;;;6.90;6.30;;;;;;;22.30;82.12;95925.44;5035955;28;20647;-62
2021/07/04 07:51:24;;;;;;;7.80;7.10;;;;;;;22.45;81.32;95916.19;5031674;28;20267;-63
2021/07/04 07:53:50;;;;;;;6.80;6.30;;;;;;;22.60;81.83;95920.38;5032794;28;20286;-64
2021/07/04 07:56:15;;;;;;;6.70;6.20;;;;;;;22.71;82.74;95917.09;5033055;28;20196;-62
2021/07/04 07:58:44;;;;;;;6.50;6.00;;;;;;;22.80;83.67;95915.22;5033215;28;20631;-63
2021/07/04 08:01:09;;;;;;;7.30;6.60;;;;;;;22.87;83.25;95918.22;5035207;28;20180;-62
2021/07/04 08:03:34;;;;;;;6.27;5.77;;;;;;;23.00;82.99;95928.00;5051311;28;20800;-63
2021/07/04 08:06:00;;;;;;;6.50;6.10;;;;;;;23.08;82.96;95929.88;5052724;28;20218;-62
2021/07/04 08:08:25;;;;;;;6.40;5.90;;;;;;;23.20;82.98;95930.06;5052907;28;20175;-62
2021/07/04 08:10:51;;;;;;;7.70;7.00;;;;;;;22.77;78.36;95928.44;5053046;28;20258;-62
2021/07/04 08:13:16;;;;;;;7.30;6.70;;;;;;;22.65;80.79;95921.00;5052403;28;20178;-64
2021/07/04 08:15:42;;;;;;;7.50;6.90;;;;;;;23.03;80.39;95922.00;5051695;28;20270;-61
2021/07/04 08:18:07;;;;;;;7.10;6.60;;;;;;;23.18;79.10;95926.91;5033297;28;20168;-63
2021/07/04 08:20:32;;;;;;;7.93;7.30;;;;;;;23.11;77.98;95920.44;5048564;28;20203;-62
2021/07/04 08:22:58;;;;;;;7.37;6.77;;;;;;;23.23;78.26;95936.66;5052499;28;20168;-62
2021/07/04 08:25:24;;;;;;;7.43;6.87;;;;;;;23.20;76.21;95932.75;5052658;28;20160;-62
2021/07/04 08:27:49;;;;;;;8.10;7.33;;;;;;;22.76;76.05;95927.66;5052840;28;20176;-63
2021/07/04 08:30:15;;;;;;;8.20;7.50;;;;;;;22.63;77.49;95931.25;5052645;28;20160;-63
2021/07/04 08:32:41;;;;;;;7.67;6.97;;;;;;;22.55;77.75;95931.22;5050390;28;20634;-62
2021/07/04 08:35:09;;;;;;;6.60;6.10;;;;;;;22.52;77.13;95928.03;5033228;28;20469;-62
2021/07/04 08:37:35;;;;;;;6.30;5.73;;;;;;;22.57;77.21;95929.03;5032558;28;20171;-62
2021/07/04 08:40:01;;;;;;;6.80;6.30;;;;;;;22.99;77.79;95931.78;5031280;28;20514;-62
2021/07/04 08:42:26;;;;;;;6.03;5.53;;;;;;;23.30;77.56;95928.97;5048228;28;20450;-63
2021/07/04 08:44:54;;;;;;;7.10;6.60;;;;;;;23.54;78.00;95931.94;5056054;28;20229;-63
2021/07/04 08:47:22;;;;;;;6.33;5.83;;;;;;;23.67;75.44;95922.13;5056050;28;20171;-63
2021/07/04 08:49:49;;;;;;;6.70;6.03;;;;;;;23.79;75.34;95920.38;5055778;28;20920;-63
2021/07/04 08:52:15;;;;;;;5.80;5.40;;;;;;;23.60;72.06;95922.63;5055615;28;20405;-64
2021/07/04 08:54:41;;;;;;;5.70;5.30;;;;;;;23.21;72.72;95925.47;5055635;28;20960;-63
2021/07/04 08:57:11;;;;;;;5.20;4.80;;;;;;;23.13;72.31;95926.28;5056181;28;20410;-63
2021/07/04 08:59:37;;;;;;;5.97;5.57;;;;;;;23.17;73.73;95927.22;5055915;28;20202;-63
2021/07/04 09:02:03;;;;;;;5.80;5.40;;;;;;;23.07;72.95;95924.84;5051238;28;20950;-62
2021/07/04 09:04:28;;;;;;;6.10;5.70;;;;;;;22.91;74.15;95924.53;5035974;28;20423;-63
2021/07/04 09:06:55;;;;;;;5.37;5.00;;;;;;;23.40;74.35;95921.41;5035780;28;20247;-63
2021/07/04 09:09:26;;;;;;;5.70;5.30;;;;;;;23.68;75.66;95910.31;5035591;28;20561;-63
2021/07/04 09:12:11;;;;;;;4.67;4.27;;;;;;;23.66;70.99;95924.03;5040150;28;20429;-60
2021/07/04 09:14:45;;;;;;;5.07;4.67;;;;;;;23.19;70.56;95920.41;5055324;28;20544;-63
2021/07/04 09:17:16;;;;;;;4.53;4.23;;;;;;;23.46;70.06;95922.78;5055316;28;20896;-63
2021/07/04 09:20:06;;;;;;;5.30;4.90;;;;;;;23.60;70.57;95916.47;5048398;28;20461;-58
2021/07/04 09:22:35;;;;;;;4.43;4.13;;;;;;;23.69;70.43;95909.97;5031676;28;20411;-63
2021/07/04 09:25:19;;;;;;;5.23;4.60;;;;;;;23.90;71.28;95904.69;5031828;28;20422;-60
2021/07/04 09:28:02;;;;;;;4.93;4.43;;;;;;;23.51;68.56;95908.44;5046489;28;20457;-59
2021/07/04 09:30:36;;;;;;;5.80;5.40;;;;;;;23.67;70.85;95896.09;5050954;28;20444;-59
2021/07/04 09:33:22;;;;;;;4.40;4.10;;;;;;;23.92;72.15;95889.84;5051074;28;20409;-63
2021/07/04 09:35:55;;;;;;;5.03;4.70;;;;;;;23.95;70.23;95881.16;5050003;28;20465;-63
2021/07/04 09:38:21;;;;;;;5.30;4.90;;;;;;;23.84;69.09;95887.22;5051547;28;20416;-62
2021/07/04 09:40:47;;;;;;;4.97;4.60;;;;;;;24.10;70.23;95879.84;5049970;28;20489;-59
2021/07/04 09:43:15;;;;;;;5.40;4.90;;;;;;;24.27;72.01;95875.22;5031864;28;20430;-59
2021/07/04 09:45:49;;;;;;;5.23;4.83;;;;;;;24.36;70.38;95875.94;5031249;28;20394;-61
2021/07/04 09:48:27;;;;;;;5.23;4.77;;;;;;;24.56;70.93;95876.28;5031339;28;20415;-59
2021/07/04 09:50:53;;;;;;;5.50;5.10;;;;;;;24.73;70.44;95873.53;5031217;28;20932;-60
2021/07/04 09:53:21;;;;;;;5.57;5.17;;;;;;;24.71;68.19;95878.44;5030555;28;20446;-59
2021/07/04 09:55:51;;;;;;;5.13;4.70;;;;;;;24.38;66.97;95872.94;5030123;28;20465;-61
2021/07/04 09:58:17;;;;;;;5.03;4.53;;;;;;;24.63;69.04;95866.59;5049350;28;20437;-63
2021/07/04 10:00:44;;;;;;;5.37;4.97;;;;;;;24.47;65.96;95868.28;5051087;28;20867;-60
2021/07/04 10:03:18;;;;;;;5.27;4.87;;;;;;;24.80;68.12;95863.03;5050608;28;20410;-62
2021/07/04 10:05:59;;;;;;;6.00;5.40;;;;;;;24.78;64.97;95860.69;5049517;28;20433;-62
2021/07/04 10:08:31;;;;;;;5.27;4.83;;;;;;;24.44;66.12;95858.97;5050849;28;20437;-62
2021/07/04 10:11:05;;;;;;;5.17;4.67;;;;;;;24.43;68.94;95857.41;5049290;28;20406;-62
2021/07/04 10:13:32;;;;;;;5.50;5.10;;;;;;;24.35;66.63;95850.19;5030627;28;20438;-60
2021/07/04 10:15:58;;;;;;;4.77;4.37;;;;;;;24.37;66.82;95847.16;5030714;28;20456;-60
2021/07/04 10:18:24;;;;;;;6.00;5.50;;;;;;;24.34;67.45;95853.19;5030139;28;20419;-62
2021/07/04 10:20:52;;;;;;;4.57;4.17;;;;;;;23.67;65.10;95847.00;5042811;28;20411;-59
2021/07/04 10:23:24;;;;;;;4.70;4.30;;;;;;;23.76;64.55;95856.59;5050078;28;20263;-58
2021/07/04 10:25:51;;;;;;;4.77;4.47;;;;;;;23.93;66.67;95851.19;5050190;28;20952;-59
2021/07/04 10:28:29;;;;;;;5.20;4.80;;;;;;;23.52;67.22;95850.97;5050517;28;20403;-59
2021/07/04 10:30:56;;;;;;;5.10;4.70;;;;;;;23.39;67.64;95858.13;5032795;28;20449;-64
2021/07/04 10:33:24;;;;;;;4.60;4.20;;;;;;;23.34;67.98;95855.63;5029988;28;20431;-62
2021/07/04 10:36:11;;;;;;;4.83;4.53;;;;;;;23.20;69.92;95851.50;5030312;28;20446;-61
2021/07/04 10:38:57;;;;;;;6.07;5.43;;;;;;;23.27;70.53;95846.44;5030415;28;20407;-60
2021/07/04 10:41:28;;;;;;;6.17;5.67;;;;;;;23.48;70.05;95842.00;5030374;28;20427;-60
2021/07/04 10:44:07;;;;;;;5.40;5.00;;;;;;;23.71;69.31;95839.88;5029687;28;20843;-59
2021/07/04 10:46:46;;;;;;;5.10;4.70;;;;;;;23.55;70.35;95841.53;5030793;28;20572;-59
2021/07/04 10:49:14;;;;;;;5.23;4.83;;;;;;;23.87;70.26;95825.63;5048753;28;20478;-61
2021/07/04 10:52:02;;;;;;;7.63;5.23;;;;;;;23.89;70.44;95830.66;5049883;28;20425;-59
2021/07/04 10:54:50;;;;;;;4.80;4.40;;;;;;;23.99;71.03;95825.69;5049600;28;20474;-58
2021/07/04 10:57:33;;;;;;;4.80;4.50;;;;;;;24.05;69.28;95823.66;5050262;28;20493;-59
2021/07/04 11:00:01;;;;;;;5.87;5.27;;;;;;;24.03;68.72;95831.25;5050041;28;20410;-60
2021/07/04 11:02:39;;;;;;;5.33;4.83;;;;;;;23.54;68.79;95827.31;5043937;28;20426;-62
2021/07/04 11:05:09;;;;;;;6.17;5.63;;;;;;;23.28;70.41;95831.94;5030100;28;20425;-65
2021/07/04 11:08:09;;;;;;;5.50;5.07;;;;;;;23.30;70.35;95824.38;5028758;28;20414;-62
2021/07/04 11:10:39;;;;;;;4.53;4.23;;;;;;;23.08;72.50;95816.50;4987178;28;20422;-64
2021/07/04 11:13:07;;;;;;;5.97;5.57;;;;;;;23.43;71.85;95813.47;5029693;28;20763;-63
2021/07/04 11:15:37;;;;;;;4.80;4.50;;;;;;;23.52;71.39;95807.28;5031465;28;20486;-64
2021/07/04 11:18:13;;;;;;;5.10;4.60;;;;;;;23.26;70.65;95793.94;5049464;28;20815;-63
2021/07/04 11:20:38;;;;;;;4.80;4.40;;;;;;;23.61;69.29;95786.59;5039121;28;20406;-65
2021/07/04 11:23:06;;;;;;;6.43;5.10;;;;;;;23.67;69.43;95779.91;5029596;28;20437;-62
2021/07/04 11:25:43;;;;;;;4.90;4.50;;;;;;;23.88;68.48;95776.16;5029888;28;20657;-60
2021/07/04 11:28:18;;;;;;;5.80;5.40;;;;;;;23.99;67.60;95765.84;5031311;28;20421;-61
2021/07/04 11:30:51;;;;;;;4.37;4.07;;;;;;;24.34;69.36;95751.91;5036293;28;20501;-63
2021/07/04 11:33:42;;;;;;;5.23;4.83;;;;;;;24.57;70.01;95754.28;5052718;28;20448;-61